sensor_id;sensor_type;location;lat;lon;timestamp;P1;durP1;ratioP1;P2;durP2;ratioP2
40555;SDS011;26250;45.422;11.100;2022-11-14T08:44:52;19.25;;;13.57;;
40555;SDS011;26250;45.422;11.100;2022-11-14T08:47:40;20.35;;;15.63;;
40555;SDS011;26250;45.422;11.100;2022-11-14T08:50:25;17.75;;;14.30;;
40555;SDS011;26250;45.422;11.100;2022-11-14T08:53:11;20.17;;;14.77;;
40555;SDS011;26250;45.422;11.100;2022-11-14T08:55:56;16.48;;;13.63;;
40555;SDS011;26250;45.422;11.100;2022-11-14T08:58:42;20.23;;;15.25;;
40555;SDS011;26250;45.422;11.100;2022-11-14T09:01:27;16.27;;;13.85;;
40555;SDS011;26250;45.422;11.100;2022-11-14T09:04:13;25.38;;;15.75;;
40555;SDS011;26250;45.422;11.100;2022-11-14T09:06:58;26.42;;;15.15;;
40555;SDS011;26250;45.422;11.100;2022-11-14T09:09:44;17.95;;;14.95;;
40555;SDS011;26250;45.422;11.100;2022-11-14T09:12:29;23.75;;;16.95;;
40555;SDS011;26250;45.422;11.100;2022-11-14T09:15:15;20.08;;;14.93;;
40555;SDS011;26250;45.422;11.100;2022-11-14T09:18:02;17.13;;;14.60;;
40555;SDS011;26250;45.422;11.100;2022-11-14T09:20:47;16.80;;;13.85;;
40555;SDS011;26250;45.422;11.100;2022-11-14T09:23:33;21.98;;;14.05;;
40555;SDS011;26250;45.422;11.100;2022-11-14T09:26:21;16.48;;;14.73;;
40555;SDS011;26250;45.422;11.100;2022-11-14T09:29:07;16.60;;;14.95;;
40555;SDS011;26250;45.422;11.100;2022-11-14T09:31:52;15.60;;;13.05;;
40555;SDS011;26250;45.422;11.100;2022-11-14T09:34:38;15.35;;;13.85;;
40555;SDS011;26250;45.422;11.100;2022-11-14T09:37:27;15.60;;;14.05;;
40555;SDS011;26250;45.422;11.100;2022-11-14T09:40:12;21.02;;;14.48;;
40555;SDS011;26250;45.422;11.100;2022-11-14T09:45:53;20.63;;;16.77;;
40555;SDS011;26250;45.422;11.100;2022-11-14T09:48:39;16.60;;;14.85;;
40555;SDS011;26250;45.422;11.100;2022-11-14T09:51:27;28.55;;;17.17;;
40555;SDS011;26250;45.422;11.100;2022-11-14T09:54:22;19.83;;;16.55;;
40555;SDS011;26250;45.422;11.100;2022-11-14T09:57:14;16.60;;;15.10;;
40555;SDS011;26250;45.422;11.100;2022-11-14T10:00:01;18.10;;;15.18;;
40555;SDS011;26250;45.422;11.100;2022-11-14T10:02:54;15.45;;;13.43;;
40555;SDS011;26250;45.422;11.100;2022-11-14T10:06:03;19.77;;;13.02;;
40555;SDS011;26250;45.422;11.100;2022-11-14T10:33:05;12.63;;;10.70;;
40555;SDS011;26250;45.422;11.100;2022-11-14T10:39:15;21.88;;;12.13;;
40555;SDS011;26250;45.422;11.100;2022-11-14T10:45:19;17.70;;;9.75;;
40555;SDS011;26250;45.422;11.100;2022-11-14T10:48:08;14.00;;;8.70;;
40555;SDS011;26250;45.422;11.100;2022-11-14T10:51:00;9.63;;;8.50;;
40555;SDS011;26250;45.422;11.100;2022-11-14T10:53:55;19.75;;;12.73;;
40555;SDS011;26250;45.422;11.100;2022-11-14T10:57:19;22.38;;;14.05;;
40555;SDS011;26250;45.422;11.100;2022-11-14T11:00:12;18.10;;;13.52;;
40555;SDS011;26250;45.422;11.100;2022-11-14T11:03:02;19.52;;;13.60;;
40555;SDS011;26250;45.422;11.100;2022-11-14T11:05:49;14.13;;;11.73;;
40555;SDS011;26250;45.422;11.100;2022-11-14T11:08:42;21.27;;;11.90;;
40555;SDS011;26250;45.422;11.100;2022-11-14T11:11:51;13.20;;;10.73;;
40555;SDS011;26250;45.422;11.100;2022-11-14T11:14:41;15.95;;;10.77;;
40555;SDS011;26250;45.422;11.100;2022-11-14T11:17:30;12.90;;;10.00;;
40555;SDS011;26250;45.422;11.100;2022-11-14T11:23:17;14.13;;;10.38;;
40555;SDS011;26250;45.422;11.100;2022-11-14T11:26:07;15.10;;;10.85;;
40555;SDS011;26250;45.422;11.100;2022-11-14T11:29:03;13.13;;;10.88;;
40555;SDS011;26250;45.422;11.100;2022-11-14T11:31:56;11.60;;;10.43;;
40555;SDS011;26250;45.422;11.100;2022-11-14T11:34:43;14.85;;;11.73;;
40555;SDS011;26250;45.422;11.100;2022-11-14T11:37:36;15.32;;;10.13;;
40555;SDS011;26250;45.422;11.100;2022-11-14T11:40:28;16.80;;;11.27;;
40555;SDS011;26250;45.422;11.100;2022-11-14T11:49:45;12.98;;;9.48;;
40555;SDS011;26250;45.422;11.100;2022-11-14T11:52:49;13.88;;;10.40;;
40555;SDS011;26250;45.422;11.100;2022-11-14T11:55:52;9.77;;;8.80;;
40555;SDS011;26250;45.422;11.100;2022-11-14T11:58:49;11.50;;;10.27;;
40555;SDS011;26250;45.422;11.100;2022-11-14T12:01:37;9.50;;;7.88;;
40555;SDS011;26250;45.422;11.100;2022-11-14T12:04:23;13.50;;;9.35;;
40555;SDS011;26250;45.422;11.100;2022-11-14T12:07:11;10.50;;;9.23;;
40555;SDS011;26250;45.422;11.100;2022-11-14T12:10:06;10.60;;;9.60;;
40555;SDS011;26250;45.422;11.100;2022-11-14T12:27:56;9.80;;;8.80;;
40555;SDS011;26250;45.422;11.100;2022-11-14T12:31:03;8.32;;;7.53;;
40555;SDS011;26250;45.422;11.100;2022-11-14T12:33:58;16.92;;;9.05;;
40555;SDS011;26250;45.422;11.100;2022-11-14T12:36:48;11.10;;;8.55;;
40555;SDS011;26250;45.422;11.100;2022-11-14T12:39:33;8.77;;;7.97;;
40555;SDS011;26250;45.422;11.100;2022-11-14T12:42:19;9.43;;;8.30;;
40555;SDS011;26250;45.422;11.100;2022-11-14T12:57:42;10.55;;;7.47;;
40555;SDS011;26250;45.422;11.100;2022-11-14T13:00:34;7.57;;;6.05;;
40555;SDS011;26250;45.422;11.100;2022-11-14T13:12:37;6.43;;;5.70;;
40555;SDS011;26250;45.422;11.100;2022-11-14T13:15:54;10.25;;;6.30;;
40555;SDS011;26250;45.422;11.100;2022-11-14T13:19:22;14.02;;;7.10;;
40555;SDS011;26250;45.422;11.100;2022-11-14T13:22:37;8.50;;;7.22;;
40555;SDS011;26250;45.422;11.100;2022-11-14T13:25:24;8.23;;;7.43;;
40555;SDS011;26250;45.422;11.100;2022-11-14T13:50:07;8.38;;;7.22;;
40555;SDS011;26250;45.422;11.100;2022-11-14T13:52:59;10.05;;;7.97;;
40555;SDS011;26250;45.422;11.100;2022-11-14T14:17:19;10.82;;;8.05;;
40555;SDS011;26250;45.422;11.100;2022-11-14T14:26:25;12.27;;;8.38;;
40555;SDS011;26250;45.422;11.100;2022-11-14T14:32:41;15.77;;;12.40;;
40555;SDS011;26250;45.422;11.100;2022-11-14T14:35:28;12.63;;;8.13;;
40555;SDS011;26250;45.422;11.100;2022-11-14T14:38:23;11.82;;;9.05;;
40555;SDS011;26250;45.422;11.100;2022-11-14T14:41:10;9.93;;;8.88;;
40555;SDS011;26250;45.422;11.100;2022-11-14T14:43:59;12.50;;;8.52;;
40555;SDS011;26250;45.422;11.100;2022-11-14T14:46:45;10.68;;;8.20;;
40555;SDS011;26250;45.422;11.100;2022-11-14T14:49:33;11.30;;;8.88;;
40555;SDS011;26250;45.422;11.100;2022-11-14T14:52:21;13.50;;;8.23;;
40555;SDS011;26250;45.422;11.100;2022-11-14T14:55:23;8.07;;;7.38;;
40555;SDS011;26250;45.422;11.100;2022-11-14T15:01:14;9.63;;;7.18;;
40555;SDS011;26250;45.422;11.100;2022-11-14T15:04:02;7.40;;;6.60;;
40555;SDS011;26250;45.422;11.100;2022-11-14T15:06:50;10.07;;;6.20;;
40555;SDS011;26250;45.422;11.100;2022-11-14T15:09:38;7.38;;;6.75;;
40555;SDS011;26250;45.422;11.100;2022-11-14T15:12:44;7.18;;;6.22;;
40555;SDS011;26250;45.422;11.100;2022-11-14T15:15:30;8.35;;;6.60;;
40555;SDS011;26250;45.422;11.100;2022-11-14T15:18:27;7.00;;;6.22;;
40555;SDS011;26250;45.422;11.100;2022-11-14T15:21:22;7.40;;;6.72;;
40555;SDS011;26250;45.422;11.100;2022-11-14T15:24:17;6.75;;;6.05;;
40555;SDS011;26250;45.422;11.100;2022-11-14T15:27:11;8.40;;;5.85;;
40555;SDS011;26250;45.422;11.100;2022-11-14T15:30:02;6.05;;;5.43;;
40555;SDS011;26250;45.422;11.100;2022-11-14T15:32:54;4.88;;;4.15;;
40555;SDS011;26250;45.422;11.100;2022-11-14T15:35:41;7.80;;;4.28;;
40555;SDS011;26250;45.422;11.100;2022-11-14T15:38:26;10.95;;;4.57;;
40555;SDS011;26250;45.422;11.100;2022-11-14T15:41:28;5.15;;;4.18;;
40555;SDS011;26250;45.422;11.100;2022-11-14T15:44:31;7.93;;;4.15;;
40555;SDS011;26250;45.422;11.100;2022-11-14T15:47:19;5.40;;;3.88;;
40555;SDS011;26250;45.422;11.100;2022-11-14T15:53:05;11.73;;;5.25;;
40555;SDS011;26250;45.422;11.100;2022-11-14T15:56:00;5.93;;;5.35;;
40555;SDS011;26250;45.422;11.100;2022-11-14T15:58:45;13.25;;;7.50;;
40555;SDS011;26250;45.422;11.100;2022-11-14T16:01:33;15.48;;;9.13;;
40555;SDS011;26250;45.422;11.100;2022-11-14T16:04:19;23.02;;;11.25;;
40555;SDS011;26250;45.422;11.100;2022-11-14T16:07:10;13.55;;;11.88;;
40555;SDS011;26250;45.422;11.100;2022-11-14T16:09:56;23.35;;;12.48;;
40555;SDS011;26250;45.422;11.100;2022-11-14T16:12:42;14.07;;;11.77;;
40555;SDS011;26250;45.422;11.100;2022-11-14T16:15:35;15.43;;;12.57;;
40555;SDS011;26250;45.422;11.100;2022-11-14T16:18:20;15.70;;;13.23;;
40555;SDS011;26250;45.422;11.100;2022-11-14T16:21:08;15.63;;;13.98;;
40555;SDS011;26250;45.422;11.100;2022-11-14T16:23:59;16.20;;;13.77;;
40555;SDS011;26250;45.422;11.100;2022-11-14T16:26:45;20.67;;;14.18;;
40555;SDS011;26250;45.422;11.100;2022-11-14T16:29:32;20.50;;;16.00;;
40555;SDS011;26250;45.422;11.100;2022-11-14T16:32:17;22.95;;;16.55;;
40555;SDS011;26250;45.422;11.100;2022-11-14T16:35:02;19.80;;;16.50;;
40555;SDS011;26250;45.422;11.100;2022-11-14T16:37:48;25.08;;;18.33;;
40555;SDS011;26250;45.422;11.100;2022-11-14T16:40:34;31.33;;;22.60;;
40555;SDS011;26250;45.422;11.100;2022-11-14T16:43:20;26.05;;;23.13;;
40555;SDS011;26250;45.422;11.100;2022-11-14T16:46:05;24.40;;;20.73;;
40555;SDS011;26250;45.422;11.100;2022-11-14T16:48:53;29.77;;;22.65;;
40555;SDS011;26250;45.422;11.100;2022-11-14T16:51:39;29.33;;;23.48;;
40555;SDS011;26250;45.422;11.100;2022-11-14T16:54:34;30.40;;;24.88;;
40555;SDS011;26250;45.422;11.100;2022-11-14T16:57:20;33.05;;;25.63;;
40555;SDS011;26250;45.422;11.100;2022-11-14T17:00:07;33.45;;;25.80;;
40555;SDS011;26250;45.422;11.100;2022-11-14T17:02:55;32.13;;;25.02;;
40555;SDS011;26250;45.422;11.100;2022-11-14T17:05:44;32.50;;;25.95;;
40555;SDS011;26250;45.422;11.100;2022-11-14T17:08:33;31.83;;;26.65;;
40555;SDS011;26250;45.422;11.100;2022-11-14T17:11:20;33.20;;;29.13;;
40555;SDS011;26250;45.422;11.100;2022-11-14T17:14:05;31.05;;;27.73;;
40555;SDS011;26250;45.422;11.100;2022-11-14T17:16:51;31.63;;;28.45;;
40555;SDS011;26250;45.422;11.100;2022-11-14T17:19:36;32.97;;;29.48;;
40555;SDS011;26250;45.422;11.100;2022-11-14T17:22:29;34.90;;;30.88;;
40555;SDS011;26250;45.422;11.100;2022-11-14T17:25:14;32.45;;;26.27;;
40555;SDS011;26250;45.422;11.100;2022-11-14T17:28:02;34.65;;;28.60;;
40555;SDS011;26250;45.422;11.100;2022-11-14T17:30:48;35.67;;;22.08;;
40555;SDS011;26250;45.422;11.100;2022-11-14T17:33:33;21.60;;;19.30;;
40555;SDS011;26250;45.422;11.100;2022-11-14T17:36:19;24.90;;;20.33;;
40555;SDS011;26250;45.422;11.100;2022-11-14T17:39:05;31.20;;;23.23;;
40555;SDS011;26250;45.422;11.100;2022-11-14T17:41:51;34.55;;;25.30;;
40555;SDS011;26250;45.422;11.100;2022-11-14T17:44:36;29.80;;;21.40;;
40555;SDS011;26250;45.422;11.100;2022-11-14T17:47:22;29.25;;;19.75;;
40555;SDS011;26250;45.422;11.100;2022-11-14T17:50:07;24.17;;;21.58;;
40555;SDS011;26250;45.422;11.100;2022-11-14T17:52:53;33.28;;;24.70;;
40555;SDS011;26250;45.422;11.100;2022-11-14T17:55:38;28.60;;;21.52;;
40555;SDS011;26250;45.422;11.100;2022-11-14T17:58:25;43.13;;;24.25;;
40555;SDS011;26250;45.422;11.100;2022-11-14T18:01:16;29.48;;;26.27;;
40555;SDS011;26250;45.422;11.100;2022-11-14T18:04:07;27.27;;;22.50;;
40555;SDS011;26250;45.422;11.100;2022-11-14T18:06:52;29.23;;;23.88;;
40555;SDS011;26250;45.422;11.100;2022-11-14T18:09:38;34.10;;;25.70;;
40555;SDS011;26250;45.422;11.100;2022-11-14T18:12:25;37.65;;;30.27;;
40555;SDS011;26250;45.422;11.100;2022-11-14T18:15:10;24.13;;;21.60;;
40555;SDS011;26250;45.422;11.100;2022-11-14T18:17:57;25.08;;;19.67;;
40555;SDS011;26250;45.422;11.100;2022-11-14T18:20:43;24.35;;;18.25;;
40555;SDS011;26250;45.422;11.100;2022-11-14T18:23:28;27.75;;;21.85;;
40555;SDS011;26250;45.422;11.100;2022-11-14T18:26:14;30.58;;;20.83;;
40555;SDS011;26250;45.422;11.100;2022-11-14T18:29:01;39.13;;;24.38;;
40555;SDS011;26250;45.422;11.100;2022-11-14T18:31:47;37.33;;;22.88;;
40555;SDS011;26250;45.422;11.100;2022-11-14T18:34:32;28.85;;;23.00;;
40555;SDS011;26250;45.422;11.100;2022-11-14T18:37:21;22.38;;;19.70;;
40555;SDS011;26250;45.422;11.100;2022-11-14T18:40:07;24.55;;;18.48;;
40555;SDS011;26250;45.422;11.100;2022-11-14T18:42:59;24.58;;;20.42;;
40555;SDS011;26250;45.422;11.100;2022-11-14T18:45:45;26.55;;;19.40;;
40555;SDS011;26250;45.422;11.100;2022-11-14T18:48:31;30.15;;;19.52;;
40555;SDS011;26250;45.422;11.100;2022-11-14T18:51:17;23.25;;;18.48;;
40555;SDS011;26250;45.422;11.100;2022-11-14T18:54:04;25.98;;;20.75;;
40555;SDS011;26250;45.422;11.100;2022-11-14T18:56:49;22.95;;;20.38;;
40555;SDS011;26250;45.422;11.100;2022-11-14T18:59:35;30.63;;;20.13;;
40555;SDS011;26250;45.422;11.100;2022-11-14T19:02:22;24.30;;;20.42;;
40555;SDS011;26250;45.422;11.100;2022-11-14T19:05:08;28.70;;;22.15;;
40555;SDS011;26250;45.422;11.100;2022-11-14T19:07:53;25.63;;;21.02;;
40555;SDS011;26250;45.422;11.100;2022-11-14T19:10:39;28.77;;;22.80;;
40555;SDS011;26250;45.422;11.100;2022-11-14T19:13:24;27.15;;;23.83;;
40555;SDS011;26250;45.422;11.100;2022-11-14T19:16:10;28.27;;;22.90;;
40555;SDS011;26250;45.422;11.100;2022-11-14T19:18:59;29.50;;;24.00;;
40555;SDS011;26250;45.422;11.100;2022-11-14T19:21:48;29.33;;;22.45;;
40555;SDS011;26250;45.422;11.100;2022-11-14T19:24:34;26.17;;;23.55;;
40555;SDS011;26250;45.422;11.100;2022-11-14T19:27:19;26.88;;;24.02;;
40555;SDS011;26250;45.422;11.100;2022-11-14T19:30:05;28.67;;;25.70;;
40555;SDS011;26250;45.422;11.100;2022-11-14T19:32:51;44.90;;;23.75;;
40555;SDS011;26250;45.422;11.100;2022-11-14T19:35:37;26.77;;;23.92;;
40555;SDS011;26250;45.422;11.100;2022-11-14T19:38:23;26.08;;;22.77;;
40555;SDS011;26250;45.422;11.100;2022-11-14T19:41:09;30.17;;;23.98;;
40555;SDS011;26250;45.422;11.100;2022-11-14T19:44:02;29.65;;;25.25;;
40555;SDS011;26250;45.422;11.100;2022-11-14T19:46:47;29.45;;;25.95;;
40555;SDS011;26250;45.422;11.100;2022-11-14T19:49:33;29.85;;;24.83;;
40555;SDS011;26250;45.422;11.100;2022-11-14T19:52:18;27.92;;;24.98;;
40555;SDS011;26250;45.422;11.100;2022-11-14T19:55:04;27.85;;;23.95;;
40555;SDS011;26250;45.422;11.100;2022-11-14T19:57:50;26.80;;;24.00;;
40555;SDS011;26250;45.422;11.100;2022-11-14T20:00:35;28.20;;;24.70;;
40555;SDS011;26250;45.422;11.100;2022-11-14T20:03:21;30.50;;;25.20;;
40555;SDS011;26250;45.422;11.100;2022-11-14T20:06:12;31.45;;;25.35;;
40555;SDS011;26250;45.422;11.100;2022-11-14T20:09:03;39.40;;;26.15;;
40555;SDS011;26250;45.422;11.100;2022-11-14T20:11:51;39.53;;;29.60;;
40555;SDS011;26250;45.422;11.100;2022-11-14T20:14:36;44.60;;;27.95;;
40555;SDS011;26250;45.422;11.100;2022-11-14T20:17:22;27.98;;;23.98;;
40555;SDS011;26250;45.422;11.100;2022-11-14T20:20:07;50.38;;;28.42;;
40555;SDS011;26250;45.422;11.100;2022-11-14T20:22:53;29.10;;;24.98;;
40555;SDS011;26250;45.422;11.100;2022-11-14T20:25:41;22.55;;;18.48;;
40555;SDS011;26250;45.422;11.100;2022-11-14T20:28:26;28.33;;;23.15;;
40555;SDS011;26250;45.422;11.100;2022-11-14T20:31:16;24.20;;;21.67;;
40555;SDS011;26250;45.422;11.100;2022-11-14T20:34:03;28.02;;;24.02;;
40555;SDS011;26250;45.422;11.100;2022-11-14T20:36:48;41.78;;;31.67;;
40555;SDS011;26250;45.422;11.100;2022-11-14T20:39:55;34.88;;;30.98;;
40555;SDS011;26250;45.422;11.100;2022-11-14T20:42:41;39.28;;;26.48;;
40555;SDS011;26250;45.422;11.100;2022-11-14T20:45:31;37.35;;;23.95;;
40555;SDS011;26250;45.422;11.100;2022-11-14T20:48:21;26.83;;;23.98;;
40555;SDS011;26250;45.422;11.100;2022-11-14T20:51:12;26.42;;;23.63;;
40555;SDS011;26250;45.422;11.100;2022-11-14T20:54:02;25.13;;;22.35;;
40555;SDS011;26250;45.422;11.100;2022-11-14T20:56:49;30.27;;;22.88;;
40555;SDS011;26250;45.422;11.100;2022-11-14T20:59:35;24.10;;;21.55;;
40555;SDS011;26250;45.422;11.100;2022-11-14T21:02:21;24.35;;;22.05;;
40555;SDS011;26250;45.422;11.100;2022-11-14T21:05:08;25.67;;;22.83;;
40555;SDS011;26250;45.422;11.100;2022-11-14T21:07:55;24.27;;;21.90;;
40555;SDS011;26250;45.422;11.100;2022-11-14T21:10:41;24.58;;;22.05;;
40555;SDS011;26250;45.422;11.100;2022-11-14T21:13:32;27.90;;;23.83;;
40555;SDS011;26250;45.422;11.100;2022-11-14T21:16:38;30.90;;;25.58;;
40555;SDS011;26250;45.422;11.100;2022-11-14T21:19:24;31.60;;;28.25;;
40555;SDS011;26250;45.422;11.100;2022-11-14T21:22:10;37.17;;;30.75;;
40555;SDS011;26250;45.422;11.100;2022-11-14T21:24:57;38.40;;;32.92;;
40555;SDS011;26250;45.422;11.100;2022-11-14T21:27:45;35.63;;;31.95;;
40555;SDS011;26250;45.422;11.100;2022-11-14T21:30:31;34.00;;;27.75;;
40555;SDS011;26250;45.422;11.100;2022-11-14T21:33:17;32.50;;;27.60;;
40555;SDS011;26250;45.422;11.100;2022-11-14T21:36:06;29.15;;;25.88;;
40555;SDS011;26250;45.422;11.100;2022-11-14T21:39:13;31.70;;;25.73;;
40555;SDS011;26250;45.422;11.100;2022-11-14T21:42:00;29.60;;;24.52;;
40555;SDS011;26250;45.422;11.100;2022-11-14T21:44:47;29.30;;;23.63;;
40555;SDS011;26250;45.422;11.100;2022-11-14T21:47:33;25.73;;;23.05;;
40555;SDS011;26250;45.422;11.100;2022-11-14T21:50:18;26.40;;;23.42;;
40555;SDS011;26250;45.422;11.100;2022-11-14T21:53:04;33.22;;;23.83;;
40555;SDS011;26250;45.422;11.100;2022-11-14T21:56:06;31.27;;;23.38;;
40555;SDS011;26250;45.422;11.100;2022-11-14T21:58:53;28.33;;;23.85;;
40555;SDS011;26250;45.422;11.100;2022-11-14T22:01:56;24.17;;;21.13;;
